sensor_id;sensor_type;location;lat;lon;timestamp;temperature;humidity
25914;DHT22;13718;50.922;5.346;2022-12-20T00:00:43;13.60;99.90
25914;DHT22;13718;50.922;5.346;2022-12-20T00:03:09;13.60;99.90
25914;DHT22;13718;50.922;5.346;2022-12-20T00:05:38;13.60;99.90
25914;DHT22;13718;50.922;5.346;2022-12-20T00:08:05;13.60;99.90
25914;DHT22;13718;50.922;5.346;2022-12-20T00:10:34;13.50;99.90
25914;DHT22;13718;50.922;5.346;2022-12-20T00:12:59;13.40;99.90
25914;DHT22;13718;50.922;5.346;2022-12-20T00:15:25;13.50;99.90
25914;DHT22;13718;50.922;5.346;2022-12-20T00:17:50;13.40;99.90
25914;DHT22;13718;50.922;5.346;2022-12-20T00:20:16;13.40;99.90
25914;DHT22;13718;50.922;5.346;2022-12-20T00:22:42;13.50;99.90
25914;DHT22;13718;50.922;5.346;2022-12-20T00:25:07;13.60;99.90
25914;DHT22;13718;50.922;5.346;2022-12-20T00:27:33;13.60;99.90
25914;DHT22;13718;50.922;5.346;2022-12-20T00:29:59;13.60;99.90
25914;DHT22;13718;50.922;5.346;2022-12-20T00:32:25;13.50;99.90
25914;DHT22;13718;50.922;5.346;2022-12-20T00:34:51;13.50;99.90
25914;DHT22;13718;50.922;5.346;2022-12-20T00:37:16;13.60;99.90
25914;DHT22;13718;50.922;5.346;2022-12-20T00:39:42;13.50;99.90
25914;DHT22;13718;50.922;5.346;2022-12-20T00:42:08;13.50;99.90
25914;DHT22;13718;50.922;5.346;2022-12-20T00:44:33;13.50;99.90
25914;DHT22;13718;50.922;5.346;2022-12-20T00:46:59;13.50;99.90
25914;DHT22;13718;50.922;5.346;2022-12-20T00:49:24;13.40;99.90
25914;DHT22;13718;50.922;5.346;2022-12-20T00:51:50;13.30;99.90
25914;DHT22;13718;50.922;5.346;2022-12-20T00:54:15;13.20;99.90
25914;DHT22;13718;50.922;5.346;2022-12-20T00:56:41;13.30;99.90
25914;DHT22;13718;50.922;5.346;2022-12-20T00:59:07;13.40;99.90
25914;DHT22;13718;50.922;5.346;2022-12-20T01:01:32;13.40;99.90
25914;DHT22;13718;50.922;5.346;2022-12-20T01:03:59;13.40;99.90
25914;DHT22;13718;50.922;5.346;2022-12-20T01:06:26;13.40;99.90
25914;DHT22;13718;50.922;5.346;2022-12-20T01:08:52;13.30;99.90
25914;DHT22;13718;50.922;5.346;2022-12-20T01:11:21;13.20;99.90
25914;DHT22;13718;50.922;5.346;2022-12-20T01:13:51;13.20;99.90
25914;DHT22;13718;50.922;5.346;2022-12-20T01:16:24;13.20;99.90
25914;DHT22;13718;50.922;5.346;2022-12-20T01:18:51;13.20;99.90
25914;DHT22;13718;50.922;5.346;2022-12-20T01:21:19;13.10;99.90
25914;DHT22;13718;50.922;5.346;2022-12-20T01:23:45;13.20;99.90
25914;DHT22;13718;50.922;5.346;2022-12-20T01:26:14;13.40;99.90
25914;DHT22;13718;50.922;5.346;2022-12-20T01:28:41;13.30;99.90
25914;DHT22;13718;50.922;5.346;2022-12-20T01:31:09;13.30;99.90
25914;DHT22;13718;50.922;5.346;2022-12-20T01:33:35;13.00;99.90
25914;DHT22;13718;50.922;5.346;2022-12-20T01:36:04;12.80;99.90
25914;DHT22;13718;50.922;5.346;2022-12-20T01:38:30;12.70;99.90
25914;DHT22;13718;50.922;5.346;2022-12-20T01:40:56;12.60;99.90
25914;DHT22;13718;50.922;5.346;2022-12-20T01:43:23;12.60;99.90
25914;DHT22;13718;50.922;5.346;2022-12-20T01:45:50;12.60;99.90
25914;DHT22;13718;50.922;5.346;2022-12-20T01:48:22;12.50;99.90
25914;DHT22;13718;50.922;5.346;2022-12-20T01:50:48;12.40;99.90
25914;DHT22;13718;50.922;5.346;2022-12-20T01:53:15;12.50;99.90
25914;DHT22;13718;50.922;5.346;2022-12-20T01:55:42;12.50;99.90
25914;DHT22;13718;50.922;5.346;2022-12-20T01:58:11;12.70;99.90
25914;DHT22;13718;50.922;5.346;2022-12-20T02:00:37;12.70;99.90
25914;DHT22;13718;50.922;5.346;2022-12-20T02:03:05;12.70;99.90
25914;DHT22;13718;50.922;5.346;2022-12-20T02:05:37;12.60;99.90
25914;DHT22;13718;50.922;5.346;2022-12-20T02:08:03;12.70;99.90
25914;DHT22;13718;50.922;5.346;2022-12-20T02:11:10;12.70;99.90
25914;DHT22;13718;50.922;5.346;2022-12-20T02:16:36;13.00;99.90
25914;DHT22;13718;50.922;5.346;2022-12-20T02:19:24;13.00;99.90
25914;DHT22;13718;50.922;5.346;2022-12-20T02:30:16;13.00;99.90
25914;DHT22;13718;50.922;5.346;2022-12-20T02:33:01;12.90;99.90
25914;DHT22;13718;50.922;5.346;2022-12-20T02:35:30;12.70;99.90
25914;DHT22;13718;50.922;5.346;2022-12-20T02:37:58;12.60;99.90
25914;DHT22;13718;50.922;5.346;2022-12-20T02:40:48;12.60;99.90
25914;DHT22;13718;50.922;5.346;2022-12-20T02:43:13;12.50;99.90
25914;DHT22;13718;50.922;5.346;2022-12-20T02:45:59;12.60;99.90
25914;DHT22;13718;50.922;5.346;2022-12-20T02:48:29;12.50;99.90
25914;DHT22;13718;50.922;5.346;2022-12-20T02:50:58;12.40;99.90
25914;DHT22;13718;50.922;5.346;2022-12-20T02:53:25;12.30;99.90
25914;DHT22;13718;50.922;5.346;2022-12-20T02:58:33;12.20;99.90
25914;DHT22;13718;50.922;5.346;2022-12-20T03:01:05;12.20;99.90
25914;DHT22;13718;50.922;5.346;2022-12-20T03:03:33;12.10;99.90
25914;DHT22;13718;50.922;5.346;2022-12-20T03:06:00;12.00;99.90
25914;DHT22;13718;50.922;5.346;2022-12-20T03:08:26;12.00;99.90
25914;DHT22;13718;50.922;5.346;2022-12-20T03:10:53;12.00;99.90
25914;DHT22;13718;50.922;5.346;2022-12-20T03:13:20;12.00;99.90
25914;DHT22;13718;50.922;5.346;2022-12-20T03:15:46;12.10;99.90
25914;DHT22;13718;50.922;5.346;2022-12-20T03:18:12;12.10;99.90
25914;DHT22;13718;50.922;5.346;2022-12-20T03:20:38;12.20;99.90
25914;DHT22;13718;50.922;5.346;2022-12-20T03:23:04;12.20;99.90
25914;DHT22;13718;50.922;5.346;2022-12-20T03:25:30;12.20;99.90
25914;DHT22;13718;50.922;5.346;2022-12-20T03:27:56;12.20;99.90
25914;DHT22;13718;50.922;5.346;2022-12-20T03:30:22;12.10;99.90
25914;DHT22;13718;50.922;5.346;2022-12-20T03:32:47;12.10;99.90
25914;DHT22;13718;50.922;5.346;2022-12-20T03:35:13;12.20;99.90
25914;DHT22;13718;50.922;5.346;2022-12-20T03:37:39;12.20;99.90
25914;DHT22;13718;50.922;5.346;2022-12-20T03:40:05;12.10;99.90
25914;DHT22;13718;50.922;5.346;2022-12-20T03:42:31;12.10;99.90
25914;DHT22;13718;50.922;5.346;2022-12-20T03:44:57;12.10;99.90
25914;DHT22;13718;50.922;5.346;2022-12-20T03:47:22;12.10;99.90
25914;DHT22;13718;50.922;5.346;2022-12-20T03:49:48;12.10;99.90
25914;DHT22;13718;50.922;5.346;2022-12-20T03:52:13;12.00;99.90
25914;DHT22;13718;50.922;5.346;2022-12-20T03:54:39;12.20;99.90
25914;DHT22;13718;50.922;5.346;2022-12-20T03:57:05;12.20;99.90
25914;DHT22;13718;50.922;5.346;2022-12-20T03:59:31;12.10;99.90
25914;DHT22;13718;50.922;5.346;2022-12-20T04:01:56;12.10;99.90
25914;DHT22;13718;50.922;5.346;2022-12-20T04:04:22;12.00;99.90
25914;DHT22;13718;50.922;5.346;2022-12-20T04:06:48;12.00;99.90
25914;DHT22;13718;50.922;5.346;2022-12-20T04:09:14;11.90;99.90
25914;DHT22;13718;50.922;5.346;2022-12-20T04:11:40;11.90;99.90
25914;DHT22;13718;50.922;5.346;2022-12-20T04:14:06;11.90;99.90
25914;DHT22;13718;50.922;5.346;2022-12-20T04:16:32;12.00;99.90
25914;DHT22;13718;50.922;5.346;2022-12-20T04:18:58;12.00;99.90
25914;DHT22;13718;50.922;5.346;2022-12-20T04:21:25;12.00;99.90
25914;DHT22;13718;50.922;5.346;2022-12-20T04:23:51;12.00;99.90
25914;DHT22;13718;50.922;5.346;2022-12-20T04:26:18;11.80;99.90
25914;DHT22;13718;50.922;5.346;2022-12-20T04:28:44;11.80;99.90
25914;DHT22;13718;50.922;5.346;2022-12-20T04:31:09;11.90;99.90
25914;DHT22;13718;50.922;5.346;2022-12-20T04:33:35;11.90;99.90
25914;DHT22;13718;50.922;5.346;2022-12-20T04:36:01;11.90;99.90
25914;DHT22;13718;50.922;5.346;2022-12-20T04:38:27;12.00;99.90
25914;DHT22;13718;50.922;5.346;2022-12-20T04:40:53;12.00;99.90
25914;DHT22;13718;50.922;5.346;2022-12-20T04:43:20;12.00;99.90
25914;DHT22;13718;50.922;5.346;2022-12-20T04:45:48;12.10;99.90
25914;DHT22;13718;50.922;5.346;2022-12-20T04:48:14;12.20;99.90
25914;DHT22;13718;50.922;5.346;2022-12-20T04:50:41;12.20;99.90
25914;DHT22;13718;50.922;5.346;2022-12-20T04:53:09;12.20;99.90
25914;DHT22;13718;50.922;5.346;2022-12-20T04:55:54;12.30;99.90
25914;DHT22;13718;50.922;5.346;2022-12-20T04:58:20;12.30;99.90
25914;DHT22;13718;50.922;5.346;2022-12-20T05:00:45;12.40;99.90
25914;DHT22;13718;50.922;5.346;2022-12-20T05:03:11;12.40;99.90
25914;DHT22;13718;50.922;5.346;2022-12-20T05:05:36;12.40;99.90
25914;DHT22;13718;50.922;5.346;2022-12-20T05:08:02;12.40;99.90
25914;DHT22;13718;50.922;5.346;2022-12-20T05:10:28;12.40;99.90
25914;DHT22;13718;50.922;5.346;2022-12-20T05:12:53;12.50;99.90
25914;DHT22;13718;50.922;5.346;2022-12-20T05:15:19;12.50;99.90
25914;DHT22;13718;50.922;5.346;2022-12-20T05:17:45;12.70;99.90
25914;DHT22;13718;50.922;5.346;2022-12-20T05:20:11;12.70;99.90
25914;DHT22;13718;50.922;5.346;2022-12-20T05:22:37;12.80;99.90
25914;DHT22;13718;50.922;5.346;2022-12-20T05:25:21;12.80;99.90
25914;DHT22;13718;50.922;5.346;2022-12-20T05:28:05;12.80;99.90
25914;DHT22;13718;50.922;5.346;2022-12-20T05:30:31;12.80;99.90
25914;DHT22;13718;50.922;5.346;2022-12-20T05:32:56;12.90;99.90
25914;DHT22;13718;50.922;5.346;2022-12-20T05:35:22;13.00;99.90
25914;DHT22;13718;50.922;5.346;2022-12-20T05:37:47;12.90;99.90
25914;DHT22;13718;50.922;5.346;2022-12-20T05:40:13;12.90;99.90
25914;DHT22;13718;50.922;5.346;2022-12-20T05:42:40;13.10;99.90
25914;DHT22;13718;50.922;5.346;2022-12-20T05:45:06;13.00;99.90
25914;DHT22;13718;50.922;5.346;2022-12-20T05:47:32;13.00;99.90
25914;DHT22;13718;50.922;5.346;2022-12-20T05:49:59;13.00;99.90
25914;DHT22;13718;50.922;5.346;2022-12-20T05:52:25;12.90;99.90
25914;DHT22;13718;50.922;5.346;2022-12-20T05:54:50;12.90;99.90
25914;DHT22;13718;50.922;5.346;2022-12-20T05:57:16;13.10;99.90
25914;DHT22;13718;50.922;5.346;2022-12-20T05:59:42;13.10;99.90
25914;DHT22;13718;50.922;5.346;2022-12-20T06:02:07;13.20;99.90
25914;DHT22;13718;50.922;5.346;2022-12-20T06:04:35;13.10;99.90
25914;DHT22;13718;50.922;5.346;2022-12-20T06:07:01;13.20;99.90
25914;DHT22;13718;50.922;5.346;2022-12-20T06:09:27;13.30;99.90
25914;DHT22;13718;50.922;5.346;2022-12-20T06:11:54;13.20;99.90
25914;DHT22;13718;50.922;5.346;2022-12-20T06:14:20;13.30;99.90
25914;DHT22;13718;50.922;5.346;2022-12-20T06:16:46;13.20;99.90
25914;DHT22;13718;50.922;5.346;2022-12-20T06:19:11;13.20;99.90
25914;DHT22;13718;50.922;5.346;2022-12-20T06:21:37;13.10;99.90
25914;DHT22;13718;50.922;5.346;2022-12-20T06:24:02;13.20;99.90
25914;DHT22;13718;50.922;5.346;2022-12-20T06:26:28;13.30;99.90
25914;DHT22;13718;50.922;5.346;2022-12-20T06:29:01;13.30;99.90
25914;DHT22;13718;50.922;5.346;2022-12-20T06:31:26;13.30;99.90
25914;DHT22;13718;50.922;5.346;2022-12-20T06:33:52;13.20;99.90
25914;DHT22;13718;50.922;5.346;2022-12-20T06:36:18;13.30;99.90
25914;DHT22;13718;50.922;5.346;2022-12-20T06:38:43;13.30;99.90
25914;DHT22;13718;50.922;5.346;2022-12-20T06:41:09;13.30;99.90
25914;DHT22;13718;50.922;5.346;2022-12-20T06:43:34;13.30;99.90
25914;DHT22;13718;50.922;5.346;2022-12-20T06:46:00;13.40;99.90
25914;DHT22;13718;50.922;5.346;2022-12-20T06:48:26;13.30;99.90
25914;DHT22;13718;50.922;5.346;2022-12-20T06:50:51;13.30;99.90
25914;DHT22;13718;50.922;5.346;2022-12-20T06:53:17;13.30;99.90
25914;DHT22;13718;50.922;5.346;2022-12-20T06:55:43;13.20;99.90
25914;DHT22;13718;50.922;5.346;2022-12-20T06:58:11;13.20;99.90
25914;DHT22;13718;50.922;5.346;2022-12-20T07:00:38;13.10;99.90
25914;DHT22;13718;50.922;5.346;2022-12-20T07:03:03;13.10;99.90
25914;DHT22;13718;50.922;5.346;2022-12-20T07:05:29;13.10;99.90
25914;DHT22;13718;50.922;5.346;2022-12-20T07:07:54;13.10;99.90
25914;DHT22;13718;50.922;5.346;2022-12-20T07:10:20;13.10;99.90
25914;DHT22;13718;50.922;5.346;2022-12-20T07:12:46;13.00;99.90
25914;DHT22;13718;50.922;5.346;2022-12-20T07:15:11;13.20;99.90
25914;DHT22;13718;50.922;5.346;2022-12-20T07:17:37;13.30;99.90
25914;DHT22;13718;50.922;5.346;2022-12-20T07:20:03;13.40;99.90
25914;DHT22;13718;50.922;5.346;2022-12-20T07:22:28;13.40;99.90
25914;DHT22;13718;50.922;5.346;2022-12-20T07:24:54;13.50;99.90
25914;DHT22;13718;50.922;5.346;2022-12-20T07:27:20;13.50;99.90
25914;DHT22;13718;50.922;5.346;2022-12-20T07:29:46;13.50;99.90
25914;DHT22;13718;50.922;5.346;2022-12-20T07:32:11;13.60;99.90
25914;DHT22;13718;50.922;5.346;2022-12-20T07:34:38;13.70;99.90
25914;DHT22;13718;50.922;5.346;2022-12-20T07:37:04;13.60;99.90
25914;DHT22;13718;50.922;5.346;2022-12-20T07:39:29;13.50;99.90
25914;DHT22;13718;50.922;5.346;2022-12-20T07:41:55;13.60;99.90
25914;DHT22;13718;50.922;5.346;2022-12-20T07:44:22;13.60;99.90
25914;DHT22;13718;50.922;5.346;2022-12-20T07:46:48;13.50;99.90
25914;DHT22;13718;50.922;5.346;2022-12-20T07:49:14;13.50;99.90
25914;DHT22;13718;50.922;5.346;2022-12-20T07:51:44;13.40;99.90
25914;DHT22;13718;50.922;5.346;2022-12-20T07:54:12;13.50;99.90
25914;DHT22;13718;50.922;5.346;2022-12-20T07:56:42;13.50;99.90
25914;DHT22;13718;50.922;5.346;2022-12-20T07:59:12;13.40;99.90
25914;DHT22;13718;50.922;5.346;2022-12-20T08:01:39;13.40;99.90
25914;DHT22;13718;50.922;5.346;2022-12-20T08:04:12;13.50;99.90
25914;DHT22;13718;50.922;5.346;2022-12-20T08:06:39;13.50;99.90
25914;DHT22;13718;50.922;5.346;2022-12-20T08:09:05;13.70;99.90
25914;DHT22;13718;50.922;5.346;2022-12-20T08:11:32;13.70;99.90
25914;DHT22;13718;50.922;5.346;2022-12-20T08:13:59;13.60;99.90
25914;DHT22;13718;50.922;5.346;2022-12-20T08:16:25;13.60;99.90
25914;DHT22;13718;50.922;5.346;2022-12-20T08:18:51;13.70;99.90
25914;DHT22;13718;50.922;5.346;2022-12-20T08:21:16;13.70;99.90
25914;DHT22;13718;50.922;5.346;2022-12-20T08:23:43;13.60;99.90
25914;DHT22;13718;50.922;5.346;2022-12-20T08:26:09;13.50;99.90
25914;DHT22;13718;50.922;5.346;2022-12-20T08:28:35;13.40;99.90
25914;DHT22;13718;50.922;5.346;2022-12-20T08:31:02;13.30;99.90
25914;DHT22;13718;50.922;5.346;2022-12-20T08:33:28;13.00;99.90
25914;DHT22;13718;50.922;5.346;2022-12-20T08:36:04;12.90;99.90
25914;DHT22;13718;50.922;5.346;2022-12-20T08:38:30;12.80;99.90
25914;DHT22;13718;50.922;5.346;2022-12-20T08:41:11;12.80;99.90
25914;DHT22;13718;50.922;5.346;2022-12-20T08:43:38;12.90;99.90
25914;DHT22;13718;50.922;5.346;2022-12-20T08:46:04;12.80;99.90
25914;DHT22;13718;50.922;5.346;2022-12-20T08:48:31;12.90;99.90
25914;DHT22;13718;50.922;5.346;2022-12-20T08:51:00;12.80;99.90
25914;DHT22;13718;50.922;5.346;2022-12-20T08:53:27;12.80;99.90
25914;DHT22;13718;50.922;5.346;2022-12-20T08:55:53;12.80;99.90
25914;DHT22;13718;50.922;5.346;2022-12-20T08:58:27;12.70;99.90
25914;DHT22;13718;50.922;5.346;2022-12-20T09:00:52;12.70;99.90
25914;DHT22;13718;50.922;5.346;2022-12-20T09:03:18;12.80;99.90
25914;DHT22;13718;50.922;5.346;2022-12-20T09:05:46;12.70;99.90
25914;DHT22;13718;50.922;5.346;2022-12-20T09:08:14;12.90;99.90
25914;DHT22;13718;50.922;5.346;2022-12-20T09:10:40;13.00;99.90
25914;DHT22;13718;50.922;5.346;2022-12-20T09:13:05;13.10;99.90
25914;DHT22;13718;50.922;5.346;2022-12-20T09:15:33;13.20;99.90
25914;DHT22;13718;50.922;5.346;2022-12-20T09:17:59;13.30;99.90
25914;DHT22;13718;50.922;5.346;2022-12-20T09:20:25;13.40;99.90
25914;DHT22;13718;50.922;5.346;2022-12-20T09:22:50;13.40;99.90
25914;DHT22;13718;50.922;5.346;2022-12-20T09:25:16;13.60;99.90
25914;DHT22;13718;50.922;5.346;2022-12-20T09:27:41;13.60;99.90
25914;DHT22;13718;50.922;5.346;2022-12-20T09:30:07;13.50;99.90
25914;DHT22;13718;50.922;5.346;2022-12-20T09:32:33;13.60;99.90
25914;DHT22;13718;50.922;5.346;2022-12-20T09:34:59;13.60;99.90
25914;DHT22;13718;50.922;5.346;2022-12-20T09:37:24;13.70;99.90
25914;DHT22;13718;50.922;5.346;2022-12-20T09:39:50;13.80;99.90
25914;DHT22;13718;50.922;5.346;2022-12-20T09:42:18;13.90;99.90
25914;DHT22;13718;50.922;5.346;2022-12-20T09:44:45;13.90;99.90
25914;DHT22;13718;50.922;5.346;2022-12-20T09:47:22;14.00;99.90
25914;DHT22;13718;50.922;5.346;2022-12-20T09:49:51;14.00;99.90
25914;DHT22;13718;50.922;5.346;2022-12-20T09:52:26;14.10;99.90
25914;DHT22;13718;50.922;5.346;2022-12-20T10:00:45;14.20;99.90
25914;DHT22;13718;50.922;5.346;2022-12-20T10:03:31;14.10;99.90
25914;DHT22;13718;50.922;5.346;2022-12-20T10:06:03;14.10;99.90
25914;DHT22;13718;50.922;5.346;2022-12-20T10:08:58;14.00;99.90
25914;DHT22;13718;50.922;5.346;2022-12-20T10:16:51;13.90;99.90
25914;DHT22;13718;50.922;5.346;2022-12-20T10:22:19;13.80;99.90
25914;DHT22;13718;50.922;5.346;2022-12-20T10:25:01;13.80;99.90
25914;DHT22;13718;50.922;5.346;2022-12-20T10:27:40;13.90;99.90
25914;DHT22;13718;50.922;5.346;2022-12-20T10:30:13;13.90;99.90
25914;DHT22;13718;50.922;5.346;2022-12-20T10:32:44;14.00;99.90
25914;DHT22;13718;50.922;5.346;2022-12-20T10:37:36;13.90;99.90
25914;DHT22;13718;50.922;5.346;2022-12-20T10:40:01;13.80;99.90
25914;DHT22;13718;50.922;5.346;2022-12-20T10:42:37;13.80;99.90
25914;DHT22;13718;50.922;5.346;2022-12-20T10:45:32;13.90;99.90
25914;DHT22;13718;50.922;5.346;2022-12-20T10:47:59;13.80;99.90
25914;DHT22;13718;50.922;5.346;2022-12-20T10:50:25;14.00;99.90
25914;DHT22;13718;50.922;5.346;2022-12-20T10:55:40;13.90;99.90
25914;DHT22;13718;50.922;5.346;2022-12-20T11:01:16;14.10;99.90
25914;DHT22;13718;50.922;5.346;2022-12-20T11:06:48;13.90;99.90
25914;DHT22;13718;50.922;5.346;2022-12-20T11:12:13;13.60;99.90
25914;DHT22;13718;50.922;5.346;2022-12-20T11:14:41;13.50;99.90
25914;DHT22;13718;50.922;5.346;2022-12-20T11:27:56;13.10;99.90
25914;DHT22;13718;50.922;5.346;2022-12-20T11:30:42;13.00;99.90
25914;DHT22;13718;50.922;5.346;2022-12-20T11:36:05;13.10;99.90
25914;DHT22;13718;50.922;5.346;2022-12-20T11:38:47;13.10;99.90
25914;DHT22;13718;50.922;5.346;2022-12-20T11:44:24;13.10;99.90
25914;DHT22;13718;50.922;5.346;2022-12-20T11:55:18;12.80;99.90
25914;DHT22;13718;50.922;5.346;2022-12-20T12:00:23;12.90;99.90
25914;DHT22;13718;50.922;5.346;2022-12-20T12:02:52;12.80;99.90
25914;DHT22;13718;50.922;5.346;2022-12-20T12:05:19;12.80;99.90
25914;DHT22;13718;50.922;5.346;2022-12-20T12:07:52;12.70;99.90
25914;DHT22;13718;50.922;5.346;2022-12-20T12:10:26;12.80;99.90
25914;DHT22;13718;50.922;5.346;2022-12-20T12:18:00;12.70;99.90
25914;DHT22;13718;50.922;5.346;2022-12-20T12:20:39;12.70;99.90
25914;DHT22;13718;50.922;5.346;2022-12-20T12:25:41;12.60;99.90
25914;DHT22;13718;50.922;5.346;2022-12-20T12:28:09;12.60;99.90
25914;DHT22;13718;50.922;5.346;2022-12-20T12:30:39;12.50;99.90
25914;DHT22;13718;50.922;5.346;2022-12-20T12:33:13;12.40;99.90
25914;DHT22;13718;50.922;5.346;2022-12-20T12:46:49;12.40;99.90
25914;DHT22;13718;50.922;5.346;2022-12-20T12:49:21;12.40;99.90
25914;DHT22;13718;50.922;5.346;2022-12-20T12:51:54;12.40;99.90
25914;DHT22;13718;50.922;5.346;2022-12-20T12:57:01;12.30;99.90
25914;DHT22;13718;50.922;5.346;2022-12-20T13:05:01;12.30;99.90
25914;DHT22;13718;50.922;5.346;2022-12-20T13:07:45;12.20;99.90
25914;DHT22;13718;50.922;5.346;2022-12-20T13:20:34;12.10;99.90
25914;DHT22;13718;50.922;5.346;2022-12-20T13:25:33;12.20;99.90
25914;DHT22;13718;50.922;5.346;2022-12-20T13:30:41;12.30;99.90
25914;DHT22;13718;50.922;5.346;2022-12-20T13:33:22;12.30;99.90
25914;DHT22;13718;50.922;5.346;2022-12-20T13:35:59;12.20;99.90
25914;DHT22;13718;50.922;5.346;2022-12-20T13:46:47;11.80;99.90
25914;DHT22;13718;50.922;5.346;2022-12-20T13:49:25;12.00;99.90
25914;DHT22;13718;50.922;5.346;2022-12-20T13:54:40;11.90;99.90
25914;DHT22;13718;50.922;5.346;2022-12-20T13:57:06;11.80;99.90
25914;DHT22;13718;50.922;5.346;2022-12-20T13:59:33;11.90;99.90
25914;DHT22;13718;50.922;5.346;2022-12-20T14:02:01;12.00;99.90
25914;DHT22;13718;50.922;5.346;2022-12-20T14:04:40;12.00;99.90
25914;DHT22;13718;50.922;5.346;2022-12-20T14:07:08;12.00;99.90
25914;DHT22;13718;50.922;5.346;2022-12-20T14:09:37;12.00;99.90
25914;DHT22;13718;50.922;5.346;2022-12-20T14:12:15;12.10;99.90
25914;DHT22;13718;50.922;5.346;2022-12-20T14:14:46;12.00;99.90
25914;DHT22;13718;50.922;5.346;2022-12-20T14:17:22;12.00;99.90
25914;DHT22;13718;50.922;5.346;2022-12-20T14:23:03;12.00;99.90
25914;DHT22;13718;50.922;5.346;2022-12-20T14:25:40;11.90;99.90
25914;DHT22;13718;50.922;5.346;2022-12-20T14:28:34;11.90;99.90
25914;DHT22;13718;50.922;5.346;2022-12-20T14:31:01;11.80;99.90
25914;DHT22;13718;50.922;5.346;2022-12-20T14:33:36;11.90;99.90
25914;DHT22;13718;50.922;5.346;2022-12-20T14:38:43;11.80;99.90
25914;DHT22;13718;50.922;5.346;2022-12-20T14:41:36;11.90;99.90
25914;DHT22;13718;50.922;5.346;2022-12-20T14:44:12;11.90;99.90
25914;DHT22;13718;50.922;5.346;2022-12-20T14:46:38;11.90;99.90
25914;DHT22;13718;50.922;5.346;2022-12-20T14:51:42;11.80;99.90
25914;DHT22;13718;50.922;5.346;2022-12-20T14:54:24;12.00;99.90
25914;DHT22;13718;50.922;5.346;2022-12-20T14:56:50;12.00;99.90
25914;DHT22;13718;50.922;5.346;2022-12-20T14:59:26;11.80;99.90
25914;DHT22;13718;50.922;5.346;2022-12-20T15:01:52;11.80;99.90
25914;DHT22;13718;50.922;5.346;2022-12-20T15:04:36;11.80;99.90
25914;DHT22;13718;50.922;5.346;2022-12-20T15:07:02;11.80;99.90
25914;DHT22;13718;50.922;5.346;2022-12-20T15:09:28;11.90;99.90
25914;DHT22;13718;50.922;5.346;2022-12-20T15:11:55;11.80;99.90
25914;DHT22;13718;50.922;5.346;2022-12-20T15:14:37;12.00;99.90
25914;DHT22;13718;50.922;5.346;2022-12-20T15:17:12;12.00;99.90
25914;DHT22;13718;50.922;5.346;2022-12-20T15:19:44;12.10;99.90
25914;DHT22;13718;50.922;5.346;2022-12-20T15:22:16;11.90;99.90
25914;DHT22;13718;50.922;5.346;2022-12-20T15:24:43;11.90;99.90
25914;DHT22;13718;50.922;5.346;2022-12-20T15:27:13;11.70;99.90
25914;DHT22;13718;50.922;5.346;2022-12-20T15:29:38;11.80;99.90
25914;DHT22;13718;50.922;5.346;2022-12-20T15:32:11;11.90;99.90
25914;DHT22;13718;50.922;5.346;2022-12-20T15:34:39;11.80;99.90
25914;DHT22;13718;50.922;5.346;2022-12-20T15:37:05;11.90;99.90
25914;DHT22;13718;50.922;5.346;2022-12-20T15:39:31;11.90;99.90
25914;DHT22;13718;50.922;5.346;2022-12-20T15:41:59;11.80;99.90
25914;DHT22;13718;50.922;5.346;2022-12-20T15:44:29;11.80;99.90
25914;DHT22;13718;50.922;5.346;2022-12-20T15:46:55;11.80;99.90
25914;DHT22;13718;50.922;5.346;2022-12-20T15:49:27;11.80;99.90
25914;DHT22;13718;50.922;5.346;2022-12-20T15:51:54;11.80;99.90
25914;DHT22;13718;50.922;5.346;2022-12-20T15:54:24;11.90;99.90
25914;DHT22;13718;50.922;5.346;2022-12-20T15:56:55;11.90;99.90
25914;DHT22;13718;50.922;5.346;2022-12-20T15:59:21;11.90;99.90
25914;DHT22;13718;50.922;5.346;2022-12-20T16:01:47;11.90;99.90
25914;DHT22;13718;50.922;5.346;2022-12-20T16:04:17;11.90;99.90
25914;DHT22;13718;50.922;5.346;2022-12-20T16:06:46;11.90;99.90
25914;DHT22;13718;50.922;5.346;2022-12-20T16:09:12;11.90;99.90
25914;DHT22;13718;50.922;5.346;2022-12-20T16:11:38;11.90;99.90
25914;DHT22;13718;50.922;5.346;2022-12-20T16:14:04;11.90;99.90
25914;DHT22;13718;50.922;5.346;2022-12-20T16:16:35;11.80;99.90
25914;DHT22;13718;50.922;5.346;2022-12-20T16:19:02;11.70;99.90
25914;DHT22;13718;50.922;5.346;2022-12-20T16:21:33;11.80;99.90
25914;DHT22;13718;50.922;5.346;2022-12-20T16:23:58;11.60;99.90
25914;DHT22;13718;50.922;5.346;2022-12-20T16:26:25;11.60;99.90
25914;DHT22;13718;50.922;5.346;2022-12-20T16:28:52;11.60;99.90
25914;DHT22;13718;50.922;5.346;2022-12-20T16:31:31;11.60;99.90
25914;DHT22;13718;50.922;5.346;2022-12-20T16:33:59;11.60;99.90
25914;DHT22;13718;50.922;5.346;2022-12-20T16:36:25;11.40;99.90
25914;DHT22;13718;50.922;5.346;2022-12-20T16:38:51;11.50;99.90
25914;DHT22;13718;50.922;5.346;2022-12-20T16:41:29;11.40;99.90
25914;DHT22;13718;50.922;5.346;2022-12-20T16:43:56;11.40;99.90
25914;DHT22;13718;50.922;5.346;2022-12-20T16:46:24;11.50;99.90
25914;DHT22;13718;50.922;5.346;2022-12-20T16:48:54;11.50;99.90
25914;DHT22;13718;50.922;5.346;2022-12-20T16:53:56;11.60;99.90
25914;DHT22;13718;50.922;5.346;2022-12-20T16:56:22;11.50;99.90
25914;DHT22;13718;50.922;5.346;2022-12-20T16:58:49;11.50;99.90
25914;DHT22;13718;50.922;5.346;2022-12-20T17:01:16;11.50;99.90
25914;DHT22;13718;50.922;5.346;2022-12-20T17:03:44;11.60;99.90
25914;DHT22;13718;50.922;5.346;2022-12-20T17:06:11;11.50;99.90
25914;DHT22;13718;50.922;5.346;2022-12-20T17:08:37;11.50;99.90
25914;DHT22;13718;50.922;5.346;2022-12-20T17:11:19;11.50;99.90
25914;DHT22;13718;50.922;5.346;2022-12-20T17:13:46;11.60;99.90
25914;DHT22;13718;50.922;5.346;2022-12-20T17:16:13;11.60;99.90
25914;DHT22;13718;50.922;5.346;2022-12-20T17:18:44;11.50;99.90
25914;DHT22;13718;50.922;5.346;2022-12-20T17:21:21;11.50;99.90
25914;DHT22;13718;50.922;5.346;2022-12-20T17:23:48;11.50;99.90
25914;DHT22;13718;50.922;5.346;2022-12-20T17:26:16;11.50;99.90
25914;DHT22;13718;50.922;5.346;2022-12-20T17:28:42;11.50;99.90
25914;DHT22;13718;50.922;5.346;2022-12-20T17:31:30;11.50;99.90
25914;DHT22;13718;50.922;5.346;2022-12-20T17:34:01;11.60;99.90
25914;DHT22;13718;50.922;5.346;2022-12-20T17:36:28;11.50;99.90
25914;DHT22;13718;50.922;5.346;2022-12-20T17:38:53;11.50;99.90
25914;DHT22;13718;50.922;5.346;2022-12-20T17:41:23;11.50;99.90
25914;DHT22;13718;50.922;5.346;2022-12-20T17:43:49;11.50;99.90
25914;DHT22;13718;50.922;5.346;2022-12-20T17:46:15;11.50;99.90
25914;DHT22;13718;50.922;5.346;2022-12-20T17:48:41;11.50;99.90
25914;DHT22;13718;50.922;5.346;2022-12-20T17:53:44;11.50;99.90
25914;DHT22;13718;50.922;5.346;2022-12-20T17:56:13;11.50;99.90